createdAt,value
2019-04-14T00:01:54.419Z,6.05
2019-04-14T00:04:25.403Z,5.47
2019-04-14T00:06:54.775Z,6.33
2019-04-14T00:09:25.048Z,5.87
2019-04-14T00:11:54.812Z,5.90
2019-04-14T00:14:25.047Z,6.40
2019-04-14T00:16:55.244Z,5.87
2019-04-14T00:19:24.519Z,5.78
2019-04-14T00:21:54.413Z,6.55
2019-04-14T00:24:23.582Z,5.80
2019-04-14T00:26:53.853Z,5.95
2019-04-14T00:29:23.878Z,5.97
2019-04-14T00:31:54.208Z,6.03
2019-04-14T00:34:42.045Z,6.35
2019-04-14T00:37:16.342Z,5.97
2019-04-14T00:42:17.003Z,5.33
2019-04-14T00:44:47.780Z,6.00
2019-04-14T00:47:18.456Z,6.03
2019-04-14T00:49:48.616Z,5.78
2019-04-14T00:52:18.997Z,5.42
2019-04-14T00:54:48.190Z,5.30
2019-04-14T00:57:18.093Z,5.37
2019-04-14T00:59:47.216Z,5.95
2019-04-14T01:02:16.692Z,5.58
2019-04-14T01:04:46.707Z,4.70
2019-04-14T01:07:17.244Z,5.37
2019-04-14T01:09:46.499Z,4.90
2019-04-14T01:12:15.540Z,4.78
2019-04-14T01:14:45.299Z,5.00
2019-04-14T01:17:15.452Z,5.45
2019-04-14T01:19:45.909Z,4.60
2019-04-14T01:22:16.234Z,5.22
2019-04-14T01:24:46.750Z,4.40
2019-04-14T01:27:16.782Z,5.40
2019-04-14T01:29:45.912Z,4.80
2019-04-14T01:32:15.425Z,4.67
2019-04-14T01:34:45.535Z,4.62
2019-04-14T01:37:15.845Z,4.12
2019-04-14T01:39:45.930Z,4.80
2019-04-14T01:42:15.895Z,4.35
2019-04-14T01:44:45.975Z,4.67
2019-04-14T01:47:15.925Z,5.10
2019-04-14T01:49:45.069Z,4.30
2019-04-14T01:52:25.304Z,4.62
2019-04-14T01:55:06.857Z,4.92
2019-04-14T01:57:41.472Z,4.67
2019-04-14T02:00:22.738Z,4.50
2019-04-14T02:02:53.068Z,4.90
2019-04-14T02:05:23.446Z,4.50
2019-04-14T02:07:53.764Z,4.50
2019-04-14T02:10:23.879Z,4.58
2019-04-14T02:12:54.106Z,4.55
2019-04-14T02:15:24.438Z,4.45
2019-04-14T02:17:54.678Z,4.50
2019-04-14T02:20:24.982Z,4.75
2019-04-14T02:22:55.232Z,4.60
2019-04-14T02:25:25.272Z,5.22
2019-04-14T02:27:55.760Z,4.35
2019-04-14T02:30:33.796Z,5.05
2019-04-14T02:33:23.575Z,4.35
2019-04-14T02:35:55.933Z,4.47
2019-04-14T02:41:04.286Z,4.28
2019-04-14T02:43:29.913Z,4.53
2019-04-14T02:48:38.260Z,4.47
2019-04-14T02:50:55.797Z,4.78
2019-04-14T02:53:36.674Z,4.28
2019-04-14T02:56:18.131Z,4.85
2019-04-14T02:58:38.648Z,4.75
2019-04-14T03:03:35.945Z,4.95
2019-04-14T03:06:10.509Z,4.40
2019-04-14T03:08:47.651Z,4.80
2019-04-14T03:11:03.991Z,4.97
2019-04-14T03:13:35.416Z,4.65
2019-04-14T03:16:16.772Z,4.62
2019-04-14T03:24:06.976Z,4.90
2019-04-14T03:26:51.752Z,4.80
2019-04-14T03:29:20.899Z,4.72
2019-04-14T03:37:35.113Z,5.30
2019-04-14T03:39:27.382Z,5.15
2019-04-14T03:41:53.086Z,4.80
2019-04-14T03:44:28.120Z,5.45
2019-04-14T03:47:03.029Z,5.22
2019-04-14T03:54:20.101Z,4.85
2019-04-14T03:56:46.676Z,5.50
2019-04-14T03:59:17.361Z,5.50
2019-04-14T04:01:47.891Z,5.28
2019-04-14T04:04:18.257Z,5.35
2019-04-14T04:06:48.596Z,5.62
2019-04-14T04:09:19.259Z,5.10
2019-04-14T04:11:49.733Z,5.83
2019-04-14T04:14:20.235Z,5.10
2019-04-14T04:17:01.461Z,5.53
2019-04-14T04:19:44.790Z,4.97
2019-04-14T04:22:17.954Z,5.15
2019-04-14T04:25:07.344Z,3.98
2019-04-14T04:27:41.901Z,4.92
2019-04-14T04:30:12.778Z,5.33
2019-04-14T04:32:49.414Z,5.30
2019-04-14T04:35:35.244Z,5.12
2019-04-14T04:38:18.127Z,5.40
2019-04-14T04:40:48.469Z,5.47
2019-04-14T04:43:18.917Z,5.35
2019-04-14T04:45:48.042Z,5.58
2019-04-14T04:48:17.407Z,4.87
2019-04-14T04:50:47.723Z,5.20
2019-04-14T04:53:17.997Z,5.35
2019-04-14T04:55:48.103Z,5.40
2019-04-14T04:58:17.365Z,4.85
2019-04-14T05:00:48.544Z,5.67
2019-04-14T05:03:17.399Z,5.67
2019-04-14T05:06:06.759Z,5.33
2019-04-14T05:08:39.035Z,5.42
2019-04-14T05:11:10.099Z,5.05
2019-04-14T05:13:40.293Z,5.30
2019-04-14T05:16:10.694Z,5.55
2019-04-14T05:18:39.899Z,5.60
2019-04-14T05:21:10.274Z,5.35
2019-04-14T05:23:39.511Z,5.78
2019-04-14T05:26:09.249Z,5.67
2019-04-14T05:28:39.534Z,5.90
2019-04-14T05:31:09.809Z,5.42
2019-04-14T05:33:39.036Z,5.28
2019-04-14T05:36:08.539Z,5.62
2019-04-14T05:38:38.621Z,5.80
2019-04-14T05:41:09.006Z,5.85
2019-04-14T05:43:46.674Z,5.47
2019-04-14T05:46:09.850Z,5.20
2019-04-14T05:48:40.293Z,5.70
2019-04-14T05:51:09.453Z,6.00
2019-04-14T05:53:39.409Z,5.35
2019-04-14T05:56:09.873Z,5.62
2019-04-14T05:58:40.324Z,5.55
2019-04-14T06:01:11.227Z,5.37
2019-04-14T06:03:40.786Z,5.55
2019-04-14T06:06:15.452Z,5.22
2019-04-14T06:08:45.124Z,5.35
2019-04-14T06:11:14.174Z,5.60
2019-04-14T06:13:43.232Z,6.05
2019-04-14T06:16:12.351Z,5.55
2019-04-14T06:18:41.395Z,5.47
2019-04-14T06:21:10.428Z,6.20
2019-04-14T06:23:39.460Z,5.10
2019-04-14T06:26:08.543Z,5.60
2019-04-14T06:28:37.555Z,5.20
2019-04-14T06:31:08.992Z,5.67
2019-04-14T06:33:56.148Z,5.03
2019-04-14T06:36:26.868Z,5.50
2019-04-14T06:39:00.520Z,5.72
2019-04-14T06:41:29.275Z,3.92
2019-04-14T06:43:58.299Z,5.15
2019-04-14T06:46:27.316Z,5.20
2019-04-14T06:48:56.361Z,5.35
2019-04-14T06:51:25.448Z,5.22
2019-04-14T06:53:54.497Z,5.22
2019-04-14T06:56:23.524Z,4.90
2019-04-14T06:58:52.552Z,4.78
2019-04-14T07:01:21.579Z,5.28
2019-04-14T07:03:50.624Z,4.65
2019-04-14T07:06:19.659Z,5.58
2019-04-14T07:08:48.703Z,5.60
2019-04-14T07:11:17.735Z,4.83
2019-04-14T07:13:48.183Z,5.80
2019-04-14T07:16:17.342Z,5.37
2019-04-14T07:18:46.375Z,5.22
2019-04-14T07:21:15.413Z,5.60
2019-04-14T07:23:47.147Z,4.83
2019-04-14T07:26:15.200Z,5.60
2019-04-14T07:28:56.150Z,5.75
2019-04-14T07:31:19.608Z,6.05
2019-04-14T07:34:06.215Z,5.50
2019-04-14T07:36:53.352Z,5.60
2019-04-14T07:39:33.070Z,5.97
2019-04-14T07:42:09.722Z,5.30
2019-04-14T07:44:57.128Z,5.70
2019-04-14T07:47:40.116Z,5.97
2019-04-14T07:50:27.058Z,5.00
2019-04-14T07:53:06.740Z,5.62
2019-04-14T07:55:41.505Z,5.60
2019-04-14T07:58:15.412Z,5.40
2019-04-14T08:00:45.790Z,5.25
2019-04-14T08:03:25.511Z,4.97
2019-04-14T08:05:54.576Z,6.00
2019-04-14T08:08:23.631Z,6.05
2019-04-14T08:10:52.665Z,6.50
2019-04-14T08:13:21.686Z,5.30
2019-04-14T08:15:50.732Z,5.83
2019-04-14T08:18:19.761Z,5.55
2019-04-14T08:20:48.863Z,5.10
2019-04-14T08:23:17.923Z,5.40
2019-04-14T08:25:47.009Z,4.90
2019-04-14T08:28:16.048Z,5.28
2019-04-14T08:30:45.146Z,3.83
2019-04-14T08:33:14.170Z,5.67
2019-04-14T08:35:43.217Z,5.80
2019-04-14T08:38:12.256Z,5.20
2019-04-14T08:40:41.346Z,5.72
2019-04-14T08:43:12.055Z,5.55
2019-04-14T08:45:42.748Z,4.70
2019-04-14T08:48:29.634Z,5.10
2019-04-14T08:51:09.198Z,4.92
2019-04-14T08:53:42.884Z,4.70
2019-04-14T08:56:16.029Z,4.97
2019-04-14T08:58:46.151Z,4.00
2019-04-14T09:01:19.731Z,5.00
2019-04-14T09:03:56.064Z,5.08
2019-04-14T09:06:29.507Z,5.53
2019-04-14T09:08:59.654Z,4.27
2019-04-14T09:11:39.341Z,4.67
2019-04-14T09:14:08.389Z,5.47
2019-04-14T09:16:37.500Z,5.15
2019-04-14T09:19:07.813Z,5.10
2019-04-14T09:21:37.236Z,5.28
2019-04-14T09:24:06.272Z,5.22
2019-04-14T09:26:35.401Z,4.90
2019-04-14T09:29:04.439Z,5.37
2019-04-14T09:31:33.484Z,5.17
2019-04-14T09:34:02.517Z,5.90
2019-04-14T09:36:31.553Z,5.33
2019-04-14T09:39:00.581Z,6.45
2019-04-14T09:41:29.618Z,5.97
2019-04-14T09:43:58.639Z,6.00
2019-04-14T09:46:27.744Z,6.30
2019-04-14T09:48:56.829Z,6.28
2019-04-14T09:51:25.931Z,5.65
2019-04-14T09:53:54.962Z,6.22
2019-04-14T09:56:24.092Z,6.33
2019-04-14T09:58:53.155Z,5.92
2019-04-14T10:01:22.511Z,6.12
2019-04-14T10:03:51.546Z,5.22
2019-04-14T10:06:20.583Z,5.80
2019-04-14T10:08:49.600Z,6.00
2019-04-14T10:11:18.711Z,6.03
2019-04-14T10:13:47.734Z,5.40
2019-04-14T10:16:16.864Z,5.95
2019-04-14T10:18:45.896Z,5.70
2019-04-14T10:21:17.667Z,5.65
2019-04-14T10:23:45.702Z,6.60
2019-04-14T10:26:14.735Z,6.25
2019-04-14T10:28:43.790Z,6.25
2019-04-14T10:31:12.823Z,5.97
2019-04-14T10:33:41.880Z,6.33
2019-04-14T10:36:10.936Z,6.53
2019-04-14T10:38:39.968Z,6.67
2019-04-14T10:41:09.023Z,6.60
2019-04-14T10:43:38.081Z,5.75
2019-04-14T10:46:07.135Z,7.78
2019-04-14T10:48:36.168Z,6.37
2019-04-14T10:51:07.212Z,6.35
2019-04-14T10:53:36.255Z,6.30
2019-04-14T10:56:05.314Z,6.15
2019-04-14T10:58:34.489Z,6.37
2019-04-14T11:01:03.580Z,6.45
2019-04-14T11:03:32.642Z,6.92
2019-04-14T11:06:03.327Z,6.58
2019-04-14T11:08:32.363Z,6.60
2019-04-14T11:11:01.468Z,7.47
2019-04-14T11:13:30.523Z,7.12
2019-04-14T11:15:59.609Z,7.55
2019-04-14T11:18:28.645Z,6.80
2019-04-14T11:20:57.693Z,6.92
2019-04-14T11:23:26.726Z,6.85
2019-04-14T11:25:55.814Z,6.95
2019-04-14T11:28:24.908Z,7.50
2019-04-14T11:30:53.991Z,7.20
2019-04-14T11:33:30.664Z,8.23
2019-04-14T11:36:16.464Z,8.68
2019-04-14T11:38:50.166Z,8.10
2019-04-14T11:41:20.552Z,8.28
2019-04-14T11:43:49.648Z,8.48
2019-04-14T11:46:18.827Z,8.13
2019-04-14T11:48:47.893Z,8.75
2019-04-14T11:51:16.937Z,7.45
2019-04-14T11:53:46.007Z,8.00
2019-04-14T11:56:15.191Z,7.62
2019-04-14T11:58:44.246Z,8.35
2019-04-14T12:01:19.723Z,8.05
2019-04-14T12:03:53.185Z,9.00
2019-04-14T12:06:26.312Z,8.80
2019-04-14T12:08:56.432Z,6.13
2019-04-14T12:11:25.467Z,7.78
2019-04-14T12:13:54.520Z,8.23
2019-04-14T12:16:23.584Z,8.55
2019-04-14T12:18:52.800Z,8.63
2019-04-14T12:21:21.868Z,8.20
2019-04-14T12:23:50.980Z,8.25
2019-04-14T12:26:20.052Z,8.35
2019-04-14T12:28:49.361Z,8.48
2019-04-14T12:31:19.571Z,7.65
2019-04-14T12:33:48.723Z,8.30
2019-04-14T12:36:17.935Z,8.35
2019-04-14T12:38:46.979Z,8.35
2019-04-14T12:41:35.883Z,8.45
2019-04-14T12:44:12.557Z,8.25
2019-04-14T12:46:43.268Z,8.20
2019-04-14T12:49:28.791Z,7.85
2019-04-14T12:51:59.487Z,7.78
2019-04-14T12:54:28.699Z,7.85
2019-04-14T12:56:57.758Z,8.68
2019-04-14T12:59:27.051Z,7.47
2019-04-14T13:02:11.217Z,7.33
2019-04-14T13:04:40.200Z,8.33
2019-04-14T13:07:09.339Z,7.92
2019-04-14T13:09:38.385Z,8.15
2019-04-14T13:12:10.141Z,7.60
2019-04-14T13:14:38.203Z,7.15
2019-04-14T13:17:07.348Z,7.42
2019-04-14T13:19:36.407Z,7.53
2019-04-14T13:22:05.551Z,7.10
2019-04-14T13:24:34.602Z,6.95
2019-04-14T13:27:03.739Z,7.25
2019-04-14T13:29:32.784Z,7.22
2019-04-14T13:32:01.844Z,6.85
2019-04-14T13:34:30.896Z,7.30
2019-04-14T13:37:00.033Z,6.20
2019-04-14T13:39:29.060Z,6.20
2019-04-14T13:41:58.124Z,6.83
2019-04-14T13:44:27.231Z,6.55
2019-04-14T13:46:56.277Z,6.10
2019-04-14T13:49:25.304Z,6.15
2019-04-14T13:51:54.426Z,6.10
2019-04-14T13:54:23.603Z,6.47
2019-04-14T13:56:52.669Z,6.03
2019-04-14T13:59:21.702Z,5.75
2019-04-14T14:01:50.776Z,5.97
2019-04-14T14:04:19.809Z,6.22
2019-04-14T14:06:48.889Z,5.53
2019-04-14T14:09:17.983Z,5.85
2019-04-14T14:12:06.930Z,5.87
2019-04-14T14:14:37.618Z,5.67
2019-04-14T14:17:08.304Z,5.17
2019-04-14T14:19:38.972Z,5.97
2019-04-14T14:22:12.339Z,5.70
2019-04-14T14:24:43.027Z,5.03
2019-04-14T14:27:12.068Z,5.15
2019-04-14T14:29:41.087Z,5.17
2019-04-14T14:32:30.041Z,5.10
2019-04-14T14:34:59.329Z,4.92
2019-04-14T14:37:28.451Z,5.33
2019-04-14T14:39:57.483Z,5.10
2019-04-14T14:42:26.580Z,4.92
2019-04-14T14:45:06.206Z,4.12
2019-04-14T14:47:36.228Z,4.45
2019-04-14T14:50:14.316Z,4.20
2019-04-14T14:52:43.350Z,4.08
2019-04-14T14:55:12.383Z,4.03
2019-04-14T14:57:41.439Z,3.87
2019-04-14T15:00:12.735Z,3.90
2019-04-14T15:02:41.785Z,4.25
2019-04-14T15:05:10.813Z,4.37
2019-04-14T15:07:39.863Z,4.55
2019-04-14T15:10:08.963Z,4.03
2019-04-14T15:12:37.999Z,4.30
2019-04-14T15:15:07.186Z,4.20
2019-04-14T15:17:36.236Z,5.00
2019-04-14T15:20:06.311Z,4.08
2019-04-14T15:22:35.341Z,4.35
2019-04-14T15:25:05.025Z,4.10
2019-04-14T15:27:34.039Z,4.20
2019-04-14T15:30:04.028Z,4.47
2019-04-14T15:32:33.059Z,4.15
2019-04-14T15:35:02.097Z,4.10
2019-04-14T15:37:31.127Z,4.17
2019-04-14T15:40:00.174Z,4.50
2019-04-14T15:42:29.211Z,3.85
2019-04-14T15:44:58.338Z,4.40
2019-04-14T15:47:27.444Z,3.33
2019-04-14T15:49:56.569Z,4.58
2019-04-14T15:52:25.661Z,4.37
2019-04-14T15:54:54.825Z,4.35
2019-04-14T15:57:41.693Z,3.92
2019-04-14T16:00:21.995Z,3.92
2019-04-14T16:03:09.189Z,4.00
2019-04-14T16:05:42.670Z,3.42
2019-04-14T16:08:15.500Z,3.00
2019-04-14T16:10:46.178Z,4.10
2019-04-14T16:13:16.849Z,3.58
2019-04-14T16:15:59.819Z,3.98
2019-04-14T16:18:36.243Z,4.12
2019-04-14T16:21:05.287Z,3.70
2019-04-14T16:23:34.335Z,4.20
2019-04-14T16:26:07.955Z,3.08
2019-04-14T16:28:44.079Z,3.85
2019-04-14T16:31:14.760Z,4.17
2019-04-14T16:34:01.704Z,3.70
2019-04-14T16:36:31.113Z,3.80
2019-04-14T16:39:00.148Z,4.10
2019-04-14T16:41:29.186Z,3.75
2019-04-14T16:43:58.209Z,3.85
2019-04-14T16:46:27.263Z,4.08
2019-04-14T16:48:56.302Z,4.62
2019-04-14T16:51:27.001Z,4.03
2019-04-14T16:54:02.988Z,4.30
2019-04-14T16:56:29.061Z,4.20
2019-04-14T16:58:59.938Z,4.08
2019-04-14T17:01:30.622Z,3.92
2019-04-14T17:03:59.647Z,4.20
2019-04-14T17:06:28.676Z,4.55
2019-04-14T17:08:57.697Z,4.10
2019-04-14T17:11:26.739Z,3.98
2019-04-14T17:13:57.472Z,4.30
2019-04-14T17:16:37.346Z,4.12
2019-04-14T17:19:08.012Z,4.03
2019-04-14T17:21:41.623Z,4.35
2019-04-14T17:24:16.720Z,4.40
2019-04-14T17:26:59.475Z,4.75
2019-04-14T17:29:36.396Z,4.22
2019-04-14T17:32:13.076Z,4.40
2019-04-14T17:34:46.612Z,4.10
2019-04-14T17:37:19.953Z,3.83
2019-04-14T17:39:50.342Z,3.02
2019-04-14T17:42:21.102Z,4.20
2019-04-14T17:45:06.790Z,4.40
2019-04-14T17:47:52.335Z,4.50
2019-04-14T17:50:40.126Z,4.78
2019-04-14T17:53:04.127Z,4.50
2019-04-14T17:55:49.449Z,4.67
2019-04-14T17:58:26.626Z,4.12
2019-04-14T18:01:00.189Z,4.50
2019-04-14T18:03:39.644Z,4.70
2019-04-14T18:06:19.140Z,4.47
2019-04-14T18:08:58.464Z,4.40
2019-04-14T18:11:32.100Z,4.40
2019-04-14T18:14:11.571Z,3.35
2019-04-14T18:16:43.989Z,4.72
2019-04-14T18:19:14.707Z,4.67
2019-04-14T18:21:44.403Z,4.47
2019-04-14T18:24:13.547Z,3.47
2019-04-14T18:26:42.595Z,4.50
2019-04-14T18:29:28.618Z,4.10
2019-04-14T18:32:05.520Z,4.45
2019-04-14T18:34:36.195Z,4.33
2019-04-14T18:37:16.134Z,4.22
2019-04-14T18:39:50.065Z,4.42
2019-04-14T18:42:26.623Z,4.37
2019-04-14T18:45:00.240Z,4.28
2019-04-14T18:47:36.559Z,4.75
2019-04-14T18:50:10.078Z,3.65
2019-04-14T18:52:49.479Z,4.45
2019-04-14T18:55:36.530Z,4.42
2019-04-14T18:58:16.014Z,4.30
2019-04-14T19:00:52.679Z,3.83
2019-04-14T19:03:21.726Z,4.10
2019-04-14T19:05:50.830Z,4.25
2019-04-14T19:08:19.869Z,4.62
2019-04-14T19:11:08.566Z,4.37
2019-04-14T19:13:39.068Z,4.60
2019-04-14T19:16:12.550Z,4.42
2019-04-14T19:18:45.363Z,4.07
2019-04-14T19:21:17.416Z,4.05
2019-04-14T19:23:46.852Z,3.95
2019-04-14T19:26:17.486Z,4.58
2019-04-14T19:28:46.561Z,4.15
2019-04-14T19:31:17.839Z,4.53
2019-04-14T19:33:46.956Z,4.47
2019-04-14T19:36:16.028Z,4.22
2019-04-14T19:38:45.228Z,4.00
2019-04-14T19:41:14.445Z,3.80
2019-04-14T19:43:43.613Z,3.72
2019-04-14T19:46:12.752Z,3.25
2019-04-14T19:48:41.946Z,3.60
2019-04-14T19:51:14.072Z,3.70
2019-04-14T19:53:43.221Z,3.72
2019-04-14T19:56:13.981Z,3.47
2019-04-14T19:58:43.102Z,3.33
2019-04-14T20:01:12.151Z,3.42
2019-04-14T20:03:41.299Z,3.95
2019-04-14T20:06:10.346Z,4.00
2019-04-14T20:08:39.442Z,3.70
2019-04-14T20:11:08.470Z,3.70
2019-04-14T20:13:42.061Z,3.70
2019-04-14T20:16:28.630Z,3.42
2019-04-14T20:19:14.427Z,3.08
2019-04-14T20:21:45.154Z,3.20
2019-04-14T20:24:15.985Z,4.15
2019-04-14T20:26:50.970Z,3.22
2019-04-14T20:29:21.734Z,3.70
2019-04-14T20:31:58.386Z,4.10
2019-04-14T20:34:27.455Z,3.65
2019-04-14T20:36:56.569Z,3.92
2019-04-14T20:39:26.551Z,3.45
2019-04-14T20:41:57.231Z,3.95
2019-04-14T20:44:26.311Z,3.77
2019-04-14T20:46:57.071Z,4.22
2019-04-14T20:49:26.121Z,3.60
2019-04-14T20:51:55.165Z,3.72
2019-04-14T20:54:24.232Z,3.58
2019-04-14T20:57:02.683Z,3.67
2019-04-14T20:59:54.678Z,3.62
2019-04-14T21:02:31.199Z,3.85
2019-04-14T21:05:02.031Z,3.87
2019-04-14T21:07:49.087Z,3.55
2019-04-14T21:10:28.905Z,3.67
2019-04-14T21:13:05.709Z,3.50
2019-04-14T21:15:36.493Z,2.75
2019-04-14T21:18:13.500Z,4.03
2019-04-14T21:20:44.254Z,3.67
2019-04-14T21:23:15.052Z,3.83
2019-04-14T21:26:00.826Z,3.70
2019-04-14T21:28:30.856Z,3.45
2019-04-14T21:31:01.615Z,3.80
2019-04-14T21:33:32.332Z,3.33
2019-04-14T21:36:06.089Z,3.70
2019-04-14T21:38:42.312Z,3.33
2019-04-14T21:41:25.303Z,3.60
2019-04-14T21:43:54.433Z,3.40
2019-04-14T21:46:23.515Z,3.45
2019-04-14T21:48:52.682Z,3.80
2019-04-14T21:51:23.468Z,3.30
2019-04-14T21:53:52.534Z,3.83
2019-04-14T21:56:22.989Z,3.27
2019-04-14T21:58:53.754Z,3.50
2019-04-14T22:01:31.382Z,3.33
2019-04-14T22:04:02.117Z,3.58
2019-04-14T22:06:32.900Z,3.42
2019-04-14T22:09:02.092Z,3.35
2019-04-14T22:11:31.227Z,3.40
2019-04-14T22:14:00.358Z,4.03
2019-04-14T22:16:29.487Z,3.58
2019-04-14T22:18:58.666Z,3.58
2019-04-14T22:21:27.792Z,4.17
2019-04-14T22:24:01.941Z,3.30
2019-04-14T22:26:27.737Z,3.52
2019-04-14T22:28:56.849Z,3.50
2019-04-14T22:31:27.592Z,4.08
2019-04-14T22:33:56.746Z,3.47
2019-04-14T22:36:25.811Z,4.33
2019-04-14T22:38:54.975Z,4.20
2019-04-14T22:41:24.051Z,3.92
2019-04-14T22:43:53.252Z,3.77
2019-04-14T22:46:22.413Z,3.85
2019-04-14T22:48:51.547Z,3.83
2019-04-14T22:51:20.678Z,3.85
2019-04-14T22:53:49.737Z,4.15
2019-04-14T22:56:18.777Z,3.85
2019-04-14T22:58:47.819Z,4.00
2019-04-14T23:01:18.474Z,3.87
2019-04-14T23:04:05.709Z,4.10
2019-04-14T23:06:39.312Z,3.50
2019-04-14T23:09:15.437Z,4.22
2019-04-14T23:11:46.115Z,3.95
2019-04-14T23:14:29.108Z,4.20
2019-04-14T23:17:11.710Z,4.60
2019-04-14T23:19:45.035Z,4.65
2019-04-14T23:22:21.568Z,4.08
2019-04-14T23:24:51.309Z,4.95
2019-04-14T23:27:20.339Z,4.67
2019-04-14T23:29:49.451Z,4.95
2019-04-14T23:32:18.469Z,4.60
2019-04-14T23:34:47.504Z,4.85
2019-04-14T23:37:16.532Z,4.70
2019-04-14T23:39:45.598Z,4.72
2019-04-14T23:42:14.635Z,4.65
2019-04-14T23:44:43.688Z,5.25
2019-04-14T23:47:12.715Z,4.70
2019-04-14T23:49:41.847Z,5.50
2019-04-14T23:52:10.940Z,5.00
2019-04-14T23:54:39.986Z,5.00
2019-04-14T23:57:09.011Z,4.83
2019-04-14T23:59:38.041Z,4.78
